sensor_id;sensor_type;location;lat;lon;timestamp;P1;durP1;ratioP1;P2;durP2;ratioP2
36185;SDS011;22228;53.222;7.446;2023-02-15T00:02:09;29.30;;;26.23;;
36185;SDS011;22228;53.222;7.446;2023-02-15T00:04:30;29.47;;;26.27;;
36185;SDS011;22228;53.222;7.446;2023-02-15T00:06:58;32.77;;;27.90;;
36185;SDS011;22228;53.222;7.446;2023-02-15T00:09:19;31.53;;;28.13;;
36185;SDS011;22228;53.222;7.446;2023-02-15T00:11:39;28.47;;;25.37;;
36185;SDS011;22228;53.222;7.446;2023-02-15T00:14:01;28.60;;;25.53;;
36185;SDS011;22228;53.222;7.446;2023-02-15T00:16:21;28.97;;;25.87;;
36185;SDS011;22228;53.222;7.446;2023-02-15T00:18:42;29.17;;;26.13;;
36185;SDS011;22228;53.222;7.446;2023-02-15T00:20:56;28.93;;;25.43;;
36185;SDS011;22228;53.222;7.446;2023-02-15T00:23:17;28.17;;;25.23;;
36185;SDS011;22228;53.222;7.446;2023-02-15T00:25:38;26.73;;;24.03;;
36185;SDS011;22228;53.222;7.446;2023-02-15T00:27:59;27.83;;;25.03;;
36185;SDS011;22228;53.222;7.446;2023-02-15T00:30:20;27.57;;;24.77;;
36185;SDS011;22228;53.222;7.446;2023-02-15T00:32:40;28.57;;;25.67;;
36185;SDS011;22228;53.222;7.446;2023-02-15T00:35:00;29.23;;;26.33;;
36185;SDS011;22228;53.222;7.446;2023-02-15T00:37:21;28.80;;;25.90;;
36185;SDS011;22228;53.222;7.446;2023-02-15T00:39:43;29.57;;;26.47;;
36185;SDS011;22228;53.222;7.446;2023-02-15T00:42:03;28.53;;;25.83;;
36185;SDS011;22228;53.222;7.446;2023-02-15T00:44:24;31.33;;;28.30;;
36185;SDS011;22228;53.222;7.446;2023-02-15T00:46:44;28.70;;;25.83;;
36185;SDS011;22228;53.222;7.446;2023-02-15T00:49:05;28.37;;;25.57;;
36185;SDS011;22228;53.222;7.446;2023-02-15T00:51:25;28.50;;;25.70;;
36185;SDS011;22228;53.222;7.446;2023-02-15T00:53:46;27.27;;;24.60;;
36185;SDS011;22228;53.222;7.446;2023-02-15T00:56:08;27.17;;;24.57;;
36185;SDS011;22228;53.222;7.446;2023-02-15T00:58:28;28.07;;;25.27;;
36185;SDS011;22228;53.222;7.446;2023-02-15T01:00:49;27.10;;;24.40;;
36185;SDS011;22228;53.222;7.446;2023-02-15T01:03:10;26.40;;;23.90;;
36185;SDS011;22228;53.222;7.446;2023-02-15T01:05:31;24.43;;;22.10;;
36185;SDS011;22228;53.222;7.446;2023-02-15T01:07:52;24.37;;;22.07;;
36185;SDS011;22228;53.222;7.446;2023-02-15T01:10:12;25.00;;;22.60;;
36185;SDS011;22228;53.222;7.446;2023-02-15T01:12:34;24.40;;;22.00;;
36185;SDS011;22228;53.222;7.446;2023-02-15T01:14:54;25.03;;;22.67;;
36185;SDS011;22228;53.222;7.446;2023-02-15T04:01:10;37.97;;;31.17;;
36185;SDS011;22228;53.222;7.446;2023-02-15T04:03:56;40.33;;;31.67;;
36185;SDS011;22228;53.222;7.446;2023-02-15T04:06:20;44.07;;;32.07;;
36185;SDS011;22228;53.222;7.446;2023-02-15T04:08:41;47.03;;;33.40;;
36185;SDS011;22228;53.222;7.446;2023-02-15T04:11:19;43.50;;;32.70;;
36185;SDS011;22228;53.222;7.446;2023-02-15T04:13:39;43.00;;;32.07;;
36185;SDS011;22228;53.222;7.446;2023-02-15T04:16:00;44.70;;;31.93;;
36185;SDS011;22228;53.222;7.446;2023-02-15T04:18:23;41.23;;;31.27;;
36185;SDS011;22228;53.222;7.446;2023-02-15T04:21:02;44.33;;;31.77;;
36185;SDS011;22228;53.222;7.446;2023-02-15T04:23:40;38.87;;;30.60;;
36185;SDS011;22228;53.222;7.446;2023-02-15T04:26:17;42.23;;;32.03;;
36185;SDS011;22228;53.222;7.446;2023-02-15T04:28:38;42.57;;;31.63;;
36185;SDS011;22228;53.222;7.446;2023-02-15T04:30:58;36.60;;;29.67;;
36185;SDS011;22228;53.222;7.446;2023-02-15T04:33:19;36.87;;;31.33;;
36185;SDS011;22228;53.222;7.446;2023-02-15T04:35:40;35.37;;;29.33;;
36185;SDS011;22228;53.222;7.446;2023-02-15T04:38:04;34.50;;;28.93;;
36185;SDS011;22228;53.222;7.446;2023-02-15T04:40:25;33.57;;;28.50;;
36185;SDS011;22228;53.222;7.446;2023-02-15T04:42:46;32.60;;;29.10;;
36185;SDS011;22228;53.222;7.446;2023-02-15T04:45:07;33.27;;;27.23;;
36185;SDS011;22228;53.222;7.446;2023-02-15T04:47:28;31.00;;;27.70;;
36185;SDS011;22228;53.222;7.446;2023-02-15T04:49:49;32.90;;;27.00;;
36185;SDS011;22228;53.222;7.446;2023-02-15T04:52:10;35.03;;;27.60;;
36185;SDS011;22228;53.222;7.446;2023-02-15T04:54:32;36.10;;;28.17;;
36185;SDS011;22228;53.222;7.446;2023-02-15T04:56:52;35.60;;;29.33;;
36185;SDS011;22228;53.222;7.446;2023-02-15T04:59:13;34.70;;;29.60;;
36185;SDS011;22228;53.222;7.446;2023-02-15T05:01:34;35.67;;;29.73;;
36185;SDS011;22228;53.222;7.446;2023-02-15T05:03:54;34.60;;;28.00;;
36185;SDS011;22228;53.222;7.446;2023-02-15T05:06:15;35.00;;;28.20;;
36185;SDS011;22228;53.222;7.446;2023-02-15T05:08:36;34.83;;;27.60;;
36185;SDS011;22228;53.222;7.446;2023-02-15T05:10:57;36.73;;;28.77;;
36185;SDS011;22228;53.222;7.446;2023-02-15T05:13:17;41.07;;;30.13;;
36185;SDS011;22228;53.222;7.446;2023-02-15T05:15:38;39.37;;;32.23;;
36185;SDS011;22228;53.222;7.446;2023-02-15T05:17:59;34.13;;;29.37;;
36185;SDS011;22228;53.222;7.446;2023-02-15T05:20:22;35.70;;;30.37;;
36185;SDS011;22228;53.222;7.446;2023-02-15T05:22:42;38.00;;;31.23;;
36185;SDS011;22228;53.222;7.446;2023-02-15T05:25:04;38.23;;;30.47;;
36185;SDS011;22228;53.222;7.446;2023-02-15T05:27:42;39.37;;;30.60;;
36185;SDS011;22228;53.222;7.446;2023-02-15T05:30:20;36.23;;;30.33;;
36185;SDS011;22228;53.222;7.446;2023-02-15T05:32:41;38.77;;;31.50;;
36185;SDS011;22228;53.222;7.446;2023-02-15T05:35:01;38.00;;;29.97;;
36185;SDS011;22228;53.222;7.446;2023-02-15T05:37:22;36.13;;;29.87;;
36185;SDS011;22228;53.222;7.446;2023-02-15T05:39:42;38.27;;;30.83;;
36185;SDS011;22228;53.222;7.446;2023-02-15T05:42:04;39.20;;;31.77;;
36185;SDS011;22228;53.222;7.446;2023-02-15T05:44:25;43.77;;;33.17;;
36185;SDS011;22228;53.222;7.446;2023-02-15T05:46:46;41.87;;;32.37;;
36185;SDS011;22228;53.222;7.446;2023-02-15T05:49:06;39.07;;;31.17;;
36185;SDS011;22228;53.222;7.446;2023-02-15T05:51:26;40.17;;;30.47;;
36185;SDS011;22228;53.222;7.446;2023-02-15T05:53:47;39.83;;;30.60;;
36185;SDS011;22228;53.222;7.446;2023-02-15T05:56:08;39.50;;;30.77;;
36185;SDS011;22228;53.222;7.446;2023-02-15T05:58:32;36.23;;;29.93;;
36185;SDS011;22228;53.222;7.446;2023-02-15T06:00:53;37.23;;;30.80;;
36185;SDS011;22228;53.222;7.446;2023-02-15T06:03:13;39.47;;;30.60;;
36185;SDS011;22228;53.222;7.446;2023-02-15T06:05:34;37.57;;;30.33;;
36185;SDS011;22228;53.222;7.446;2023-02-15T06:07:54;39.03;;;31.23;;
36185;SDS011;22228;53.222;7.446;2023-02-15T06:10:15;38.27;;;31.10;;
36185;SDS011;22228;53.222;7.446;2023-02-15T06:12:35;43.23;;;34.40;;
36185;SDS011;22228;53.222;7.446;2023-02-15T06:14:57;42.83;;;32.73;;
36185;SDS011;22228;53.222;7.446;2023-02-15T06:17:17;43.60;;;32.57;;
36185;SDS011;22228;53.222;7.446;2023-02-15T06:19:38;39.10;;;31.07;;
36185;SDS011;22228;53.222;7.446;2023-02-15T06:21:58;40.40;;;31.80;;
36185;SDS011;22228;53.222;7.446;2023-02-15T06:24:19;40.03;;;31.53;;
36185;SDS011;22228;53.222;7.446;2023-02-15T06:26:40;37.97;;;31.13;;
36185;SDS011;22228;53.222;7.446;2023-02-15T06:29:00;39.07;;;30.67;;
36185;SDS011;22228;53.222;7.446;2023-02-15T06:31:22;42.63;;;32.27;;
36185;SDS011;22228;53.222;7.446;2023-02-15T06:33:42;37.47;;;31.20;;
36185;SDS011;22228;53.222;7.446;2023-02-15T06:36:03;40.90;;;32.43;;
36185;SDS011;22228;53.222;7.446;2023-02-15T06:38:23;45.50;;;34.97;;
36185;SDS011;22228;53.222;7.446;2023-02-15T06:40:44;47.73;;;35.17;;
36185;SDS011;22228;53.222;7.446;2023-02-15T06:43:05;42.47;;;33.40;;
36185;SDS011;22228;53.222;7.446;2023-02-15T06:45:25;45.03;;;33.77;;
36185;SDS011;22228;53.222;7.446;2023-02-15T06:47:47;45.63;;;33.87;;
36185;SDS011;22228;53.222;7.446;2023-02-15T06:50:08;40.63;;;32.57;;
36185;SDS011;22228;53.222;7.446;2023-02-15T06:52:29;39.50;;;31.13;;
36185;SDS011;22228;53.222;7.446;2023-02-15T06:54:50;44.80;;;35.47;;
36185;SDS011;22228;53.222;7.446;2023-02-15T06:57:11;45.77;;;34.97;;
36185;SDS011;22228;53.222;7.446;2023-02-15T06:59:32;58.80;;;39.33;;
36185;SDS011;22228;53.222;7.446;2023-02-15T07:01:52;58.43;;;43.63;;
36185;SDS011;22228;53.222;7.446;2023-02-15T07:04:15;67.93;;;46.60;;
36185;SDS011;22228;53.222;7.446;2023-02-15T07:06:35;65.20;;;44.77;;
36185;SDS011;22228;53.222;7.446;2023-02-15T07:08:56;66.97;;;47.43;;
36185;SDS011;22228;53.222;7.446;2023-02-15T07:11:17;69.70;;;47.03;;
36185;SDS011;22228;53.222;7.446;2023-02-15T07:13:55;68.13;;;46.63;;
36185;SDS011;22228;53.222;7.446;2023-02-15T07:16:16;77.70;;;50.60;;
36185;SDS011;22228;53.222;7.446;2023-02-15T07:18:36;73.00;;;48.37;;
36185;SDS011;22228;53.222;7.446;2023-02-15T07:20:58;75.03;;;47.83;;
36185;SDS011;22228;53.222;7.446;2023-02-15T07:23:19;75.17;;;48.67;;
36185;SDS011;22228;53.222;7.446;2023-02-15T07:25:40;73.53;;;47.57;;
36185;SDS011;22228;53.222;7.446;2023-02-15T07:28:01;70.93;;;48.27;;
36185;SDS011;22228;53.222;7.446;2023-02-15T07:30:22;77.67;;;49.87;;
36185;SDS011;22228;53.222;7.446;2023-02-15T07:32:43;75.27;;;49.60;;
36185;SDS011;22228;53.222;7.446;2023-02-15T07:35:21;74.63;;;50.07;;
36185;SDS011;22228;53.222;7.446;2023-02-15T07:37:43;77.63;;;50.87;;
36185;SDS011;22228;53.222;7.446;2023-02-15T07:40:04;81.63;;;53.40;;
36185;SDS011;22228;53.222;7.446;2023-02-15T07:42:25;91.00;;;55.33;;
36185;SDS011;22228;53.222;7.446;2023-02-15T07:44:46;90.00;;;54.77;;
36185;SDS011;22228;53.222;7.446;2023-02-15T07:47:06;84.20;;;54.07;;
36185;SDS011;22228;53.222;7.446;2023-02-15T07:49:27;93.57;;;55.43;;
36185;SDS011;22228;53.222;7.446;2023-02-15T07:51:47;90.30;;;56.83;;
36185;SDS011;22228;53.222;7.446;2023-02-15T07:56:45;90.27;;;58.53;;
36185;SDS011;22228;53.222;7.446;2023-02-15T08:02:05;94.47;;;60.80;;
36185;SDS011;22228;53.222;7.446;2023-02-15T08:04:29;88.90;;;58.43;;
36185;SDS011;22228;53.222;7.446;2023-02-15T08:06:52;105.53;;;61.80;;
36185;SDS011;22228;53.222;7.446;2023-02-15T08:09:13;93.57;;;61.17;;
36185;SDS011;22228;53.222;7.446;2023-02-15T08:11:35;96.23;;;61.83;;
36185;SDS011;22228;53.222;7.446;2023-02-15T08:13:59;97.63;;;62.07;;
36185;SDS011;22228;53.222;7.446;2023-02-15T08:16:22;104.37;;;65.33;;
36185;SDS011;22228;53.222;7.446;2023-02-15T08:18:44;108.40;;;64.53;;
36185;SDS011;22228;53.222;7.446;2023-02-15T08:21:04;102.73;;;63.87;;
36185;SDS011;22228;53.222;7.446;2023-02-15T08:23:25;102.90;;;62.67;;
36185;SDS011;22228;53.222;7.446;2023-02-15T08:25:49;105.80;;;64.53;;
36185;SDS011;22228;53.222;7.446;2023-02-15T08:28:10;111.70;;;66.07;;
36185;SDS011;22228;53.222;7.446;2023-02-15T08:30:31;114.03;;;66.10;;
36185;SDS011;22228;53.222;7.446;2023-02-15T08:32:51;122.47;;;72.37;;
36185;SDS011;22228;53.222;7.446;2023-02-15T08:35:12;108.77;;;66.37;;
36185;SDS011;22228;53.222;7.446;2023-02-15T08:37:48;105.70;;;65.27;;
36185;SDS011;22228;53.222;7.446;2023-02-15T08:40:09;108.33;;;66.33;;
36185;SDS011;22228;53.222;7.446;2023-02-15T08:42:32;112.13;;;67.90;;
36185;SDS011;22228;53.222;7.446;2023-02-15T08:44:54;107.13;;;66.97;;
36185;SDS011;22228;53.222;7.446;2023-02-15T08:47:14;101.40;;;65.37;;
36185;SDS011;22228;53.222;7.446;2023-02-15T08:49:35;100.83;;;64.77;;
36185;SDS011;22228;53.222;7.446;2023-02-15T08:51:55;102.50;;;66.10;;
36185;SDS011;22228;53.222;7.446;2023-02-15T08:54:17;108.93;;;66.60;;
36185;SDS011;22228;53.222;7.446;2023-02-15T08:56:43;105.53;;;66.23;;
36185;SDS011;22228;53.222;7.446;2023-02-15T08:59:04;117.00;;;70.17;;
36185;SDS011;22228;53.222;7.446;2023-02-15T09:01:28;117.77;;;69.83;;
36185;SDS011;22228;53.222;7.446;2023-02-15T09:03:50;115.90;;;72.80;;
36185;SDS011;22228;53.222;7.446;2023-02-15T09:06:14;124.47;;;76.63;;
36185;SDS011;22228;53.222;7.446;2023-02-15T09:08:35;121.23;;;76.00;;
36185;SDS011;22228;53.222;7.446;2023-02-15T09:11:04;129.13;;;79.33;;
36185;SDS011;22228;53.222;7.446;2023-02-15T09:13:29;126.63;;;78.03;;
36185;SDS011;22228;53.222;7.446;2023-02-15T09:15:49;132.93;;;81.33;;
36185;SDS011;22228;53.222;7.446;2023-02-15T09:18:11;125.10;;;76.93;;
36185;SDS011;22228;53.222;7.446;2023-02-15T09:20:36;138.37;;;81.57;;
36185;SDS011;22228;53.222;7.446;2023-02-15T09:22:56;131.50;;;81.57;;
36185;SDS011;22228;53.222;7.446;2023-02-15T09:25:16;119.73;;;77.13;;
36185;SDS011;22228;53.222;7.446;2023-02-15T09:27:39;129.50;;;78.47;;
36185;SDS011;22228;53.222;7.446;2023-02-15T09:29:59;123.23;;;78.10;;
36185;SDS011;22228;53.222;7.446;2023-02-15T09:32:20;114.63;;;74.63;;
36185;SDS011;22228;53.222;7.446;2023-02-15T09:34:42;113.40;;;72.47;;
36185;SDS011;22228;53.222;7.446;2023-02-15T09:37:04;122.87;;;75.87;;
36185;SDS011;22228;53.222;7.446;2023-02-15T09:39:25;104.83;;;69.37;;
36185;SDS011;22228;53.222;7.446;2023-02-15T09:44:55;117.70;;;72.70;;
36185;SDS011;22228;53.222;7.446;2023-02-15T09:47:33;107.67;;;73.57;;
36185;SDS011;22228;53.222;7.446;2023-02-15T09:50:08;115.70;;;74.97;;
36185;SDS011;22228;53.222;7.446;2023-02-15T09:52:41;116.93;;;73.23;;
36185;SDS011;22228;53.222;7.446;2023-02-15T09:55:19;116.23;;;73.97;;
36185;SDS011;22228;53.222;7.446;2023-02-15T09:57:56;112.33;;;71.03;;
36185;SDS011;22228;53.222;7.446;2023-02-15T10:00:25;102.57;;;67.20;;
36185;SDS011;22228;53.222;7.446;2023-02-15T10:02:55;103.17;;;67.40;;
36185;SDS011;22228;53.222;7.446;2023-02-15T10:05:33;90.97;;;62.50;;
36185;SDS011;22228;53.222;7.446;2023-02-15T10:08:15;90.23;;;60.83;;
36185;SDS011;22228;53.222;7.446;2023-02-15T10:10:52;85.43;;;56.27;;
36185;SDS011;22228;53.222;7.446;2023-02-15T10:13:41;81.30;;;54.57;;
36185;SDS011;22228;53.222;7.446;2023-02-15T10:16:10;76.63;;;51.67;;
36185;SDS011;22228;53.222;7.446;2023-02-15T10:18:39;70.27;;;51.47;;
36185;SDS011;22228;53.222;7.446;2023-02-15T10:21:14;72.67;;;50.20;;
36185;SDS011;22228;53.222;7.446;2023-02-15T10:23:47;70.73;;;48.83;;
36185;SDS011;22228;53.222;7.446;2023-02-15T10:26:17;70.63;;;48.17;;
36185;SDS011;22228;53.222;7.446;2023-02-15T10:28:41;69.93;;;47.27;;
36185;SDS011;22228;53.222;7.446;2023-02-15T10:31:07;64.50;;;46.17;;
36185;SDS011;22228;53.222;7.446;2023-02-15T10:33:40;64.13;;;46.43;;
36185;SDS011;22228;53.222;7.446;2023-02-15T10:36:05;59.83;;;43.60;;
36185;SDS011;22228;53.222;7.446;2023-02-15T10:38:38;61.17;;;44.87;;
36185;SDS011;22228;53.222;7.446;2023-02-15T10:41:06;61.33;;;44.13;;
36185;SDS011;22228;53.222;7.446;2023-02-15T10:43:45;58.07;;;43.60;;
36185;SDS011;22228;53.222;7.446;2023-02-15T10:46:21;61.37;;;44.50;;
36185;SDS011;22228;53.222;7.446;2023-02-15T10:48:53;61.63;;;45.07;;
36185;SDS011;22228;53.222;7.446;2023-02-15T10:51:38;62.30;;;45.57;;
36185;SDS011;22228;53.222;7.446;2023-02-15T10:54:09;62.63;;;45.37;;
36185;SDS011;22228;53.222;7.446;2023-02-15T10:56:43;61.20;;;44.97;;
36185;SDS011;22228;53.222;7.446;2023-02-15T10:59:21;59.90;;;42.33;;
36185;SDS011;22228;53.222;7.446;2023-02-15T11:01:56;58.40;;;43.77;;
36185;SDS011;22228;53.222;7.446;2023-02-15T11:04:34;54.13;;;40.23;;
36185;SDS011;22228;53.222;7.446;2023-02-15T11:07:06;58.57;;;43.13;;
36185;SDS011;22228;53.222;7.446;2023-02-15T11:09:35;55.27;;;42.37;;
36185;SDS011;22228;53.222;7.446;2023-02-15T11:12:00;56.13;;;42.03;;
36185;SDS011;22228;53.222;7.446;2023-02-15T11:14:23;55.07;;;40.87;;
36185;SDS011;22228;53.222;7.446;2023-02-15T11:16:53;51.03;;;39.77;;
36185;SDS011;22228;53.222;7.446;2023-02-15T11:19:18;58.83;;;41.40;;
36185;SDS011;22228;53.222;7.446;2023-02-15T11:21:42;50.73;;;39.43;;
36185;SDS011;22228;53.222;7.446;2023-02-15T11:24:10;50.10;;;38.57;;
36185;SDS011;22228;53.222;7.446;2023-02-15T11:26:33;52.67;;;40.30;;
36185;SDS011;22228;53.222;7.446;2023-02-15T11:28:57;51.07;;;38.97;;
36185;SDS011;22228;53.222;7.446;2023-02-15T11:31:22;50.37;;;37.67;;
36185;SDS011;22228;53.222;7.446;2023-02-15T11:33:45;52.20;;;38.43;;
36185;SDS011;22228;53.222;7.446;2023-02-15T11:36:11;53.73;;;39.47;;
36185;SDS011;22228;53.222;7.446;2023-02-15T11:38:35;50.03;;;37.93;;
36185;SDS011;22228;53.222;7.446;2023-02-15T11:41:01;47.17;;;36.67;;
36185;SDS011;22228;53.222;7.446;2023-02-15T11:43:26;47.77;;;37.27;;
36185;SDS011;22228;53.222;7.446;2023-02-15T11:45:50;47.23;;;37.67;;
36185;SDS011;22228;53.222;7.446;2023-02-15T11:48:12;49.30;;;38.27;;
36185;SDS011;22228;53.222;7.446;2023-02-15T11:50:34;50.70;;;37.63;;
36185;SDS011;22228;53.222;7.446;2023-02-15T11:52:57;48.50;;;37.97;;
36185;SDS011;22228;53.222;7.446;2023-02-15T11:55:21;50.17;;;37.23;;
36185;SDS011;22228;53.222;7.446;2023-02-15T11:57:45;47.13;;;36.50;;
36185;SDS011;22228;53.222;7.446;2023-02-15T12:00:12;51.53;;;38.10;;
36185;SDS011;22228;53.222;7.446;2023-02-15T12:02:40;46.27;;;35.57;;
36185;SDS011;22228;53.222;7.446;2023-02-15T12:05:07;46.03;;;35.97;;
36185;SDS011;22228;53.222;7.446;2023-02-15T12:07:32;46.40;;;35.87;;
36185;SDS011;22228;53.222;7.446;2023-02-15T12:09:59;44.43;;;35.10;;
36185;SDS011;22228;53.222;7.446;2023-02-15T12:12:26;43.67;;;34.27;;
36185;SDS011;22228;53.222;7.446;2023-02-15T12:14:50;45.20;;;34.93;;
36185;SDS011;22228;53.222;7.446;2023-02-15T12:17:12;45.33;;;34.00;;
36185;SDS011;22228;53.222;7.446;2023-02-15T12:19:36;42.37;;;32.93;;
36185;SDS011;22228;53.222;7.446;2023-02-15T12:22:00;43.20;;;32.00;;
36185;SDS011;22228;53.222;7.446;2023-02-15T12:24:23;45.93;;;33.47;;
36185;SDS011;22228;53.222;7.446;2023-02-15T12:26:55;43.57;;;32.37;;
36185;SDS011;22228;53.222;7.446;2023-02-15T12:29:18;40.87;;;32.67;;
36185;SDS011;22228;53.222;7.446;2023-02-15T12:31:46;39.13;;;31.70;;
36185;SDS011;22228;53.222;7.446;2023-02-15T12:34:09;45.90;;;33.53;;
36185;SDS011;22228;53.222;7.446;2023-02-15T12:36:39;48.77;;;34.93;;
36185;SDS011;22228;53.222;7.446;2023-02-15T12:39:14;45.43;;;32.40;;
36185;SDS011;22228;53.222;7.446;2023-02-15T12:41:40;42.40;;;33.10;;
36185;SDS011;22228;53.222;7.446;2023-02-15T12:44:06;42.37;;;32.40;;
36185;SDS011;22228;53.222;7.446;2023-02-15T12:46:37;40.70;;;32.80;;
36185;SDS011;22228;53.222;7.446;2023-02-15T12:49:11;44.50;;;32.20;;
36185;SDS011;22228;53.222;7.446;2023-02-15T12:51:44;43.17;;;32.63;;
36185;SDS011;22228;53.222;7.446;2023-02-15T12:54:15;41.97;;;31.67;;
36185;SDS011;22228;53.222;7.446;2023-02-15T12:56:36;41.60;;;31.87;;
36185;SDS011;22228;53.222;7.446;2023-02-15T12:59:03;39.37;;;30.47;;
36185;SDS011;22228;53.222;7.446;2023-02-15T13:01:25;41.43;;;31.13;;
36185;SDS011;22228;53.222;7.446;2023-02-15T13:03:56;41.73;;;30.77;;
36185;SDS011;22228;53.222;7.446;2023-02-15T13:06:19;42.53;;;29.87;;
36185;SDS011;22228;53.222;7.446;2023-02-15T13:08:46;40.87;;;29.93;;
36185;SDS011;22228;53.222;7.446;2023-02-15T13:11:12;42.57;;;30.37;;
36185;SDS011;22228;53.222;7.446;2023-02-15T13:13:45;39.37;;;30.33;;
36185;SDS011;22228;53.222;7.446;2023-02-15T13:16:13;42.00;;;31.17;;
36185;SDS011;22228;53.222;7.446;2023-02-15T13:18:35;37.27;;;30.17;;
36185;SDS011;22228;53.222;7.446;2023-02-15T13:20:58;41.43;;;30.20;;
36185;SDS011;22228;53.222;7.446;2023-02-15T13:23:27;40.70;;;29.63;;
36185;SDS011;22228;53.222;7.446;2023-02-15T13:25:49;39.70;;;29.43;;
36185;SDS011;22228;53.222;7.446;2023-02-15T13:28:11;40.73;;;30.73;;
36185;SDS011;22228;53.222;7.446;2023-02-15T13:30:35;41.13;;;29.73;;
36185;SDS011;22228;53.222;7.446;2023-02-15T13:32:59;42.13;;;29.93;;
36185;SDS011;22228;53.222;7.446;2023-02-15T13:35:22;37.40;;;28.60;;
36185;SDS011;22228;53.222;7.446;2023-02-15T13:38:02;43.43;;;30.93;;
36185;SDS011;22228;53.222;7.446;2023-02-15T13:40:33;39.37;;;28.47;;
36185;SDS011;22228;53.222;7.446;2023-02-15T13:42:59;39.53;;;28.80;;
36185;SDS011;22228;53.222;7.446;2023-02-15T13:45:30;37.77;;;28.67;;
36185;SDS011;22228;53.222;7.446;2023-02-15T13:47:57;36.93;;;27.33;;
36185;SDS011;22228;53.222;7.446;2023-02-15T13:50:29;40.13;;;28.53;;
36185;SDS011;22228;53.222;7.446;2023-02-15T13:53:01;39.50;;;28.73;;
36185;SDS011;22228;53.222;7.446;2023-02-15T13:55:37;39.17;;;29.37;;
36185;SDS011;22228;53.222;7.446;2023-02-15T13:58:13;41.47;;;28.90;;
36185;SDS011;22228;53.222;7.446;2023-02-15T14:00:51;38.17;;;28.17;;
36185;SDS011;22228;53.222;7.446;2023-02-15T14:03:42;41.60;;;29.87;;
36185;SDS011;22228;53.222;7.446;2023-02-15T14:06:28;39.40;;;28.50;;
36185;SDS011;22228;53.222;7.446;2023-02-15T14:09:07;37.07;;;27.40;;
36185;SDS011;22228;53.222;7.446;2023-02-15T14:11:37;36.93;;;26.80;;
36185;SDS011;22228;53.222;7.446;2023-02-15T14:14:12;40.23;;;29.80;;
36185;SDS011;22228;53.222;7.446;2023-02-15T14:16:53;37.23;;;27.00;;
36185;SDS011;22228;53.222;7.446;2023-02-15T14:19:21;35.20;;;27.70;;
36185;SDS011;22228;53.222;7.446;2023-02-15T14:21:50;37.17;;;28.10;;
36185;SDS011;22228;53.222;7.446;2023-02-15T14:24:28;36.87;;;27.80;;
36185;SDS011;22228;53.222;7.446;2023-02-15T14:26:57;38.43;;;27.50;;
36185;SDS011;22228;53.222;7.446;2023-02-15T14:29:25;38.10;;;27.03;;
36185;SDS011;22228;53.222;7.446;2023-02-15T14:31:56;36.47;;;26.43;;
36185;SDS011;22228;53.222;7.446;2023-02-15T14:34:21;38.93;;;28.30;;
36185;SDS011;22228;53.222;7.446;2023-02-15T14:36:44;35.07;;;27.23;;
36185;SDS011;22228;53.222;7.446;2023-02-15T14:39:07;39.73;;;29.53;;
36185;SDS011;22228;53.222;7.446;2023-02-15T14:41:59;36.10;;;27.53;;
36185;SDS011;22228;53.222;7.446;2023-02-15T14:44:27;40.37;;;28.37;;
36185;SDS011;22228;53.222;7.446;2023-02-15T14:46:57;35.47;;;26.60;;
36185;SDS011;22228;53.222;7.446;2023-02-15T14:49:25;37.23;;;27.90;;
36185;SDS011;22228;53.222;7.446;2023-02-15T14:51:53;39.60;;;26.77;;
36185;SDS011;22228;53.222;7.446;2023-02-15T14:57:23;39.40;;;26.60;;
36185;SDS011;22228;53.222;7.446;2023-02-15T14:59:45;35.50;;;26.43;;
36185;SDS011;22228;53.222;7.446;2023-02-15T15:02:12;38.53;;;27.23;;
36185;SDS011;22228;53.222;7.446;2023-02-15T15:04:36;39.10;;;27.67;;
36185;SDS011;22228;53.222;7.446;2023-02-15T15:07:01;39.10;;;27.63;;
36185;SDS011;22228;53.222;7.446;2023-02-15T15:09:27;37.83;;;26.83;;
36185;SDS011;22228;53.222;7.446;2023-02-15T15:11:49;36.47;;;25.43;;
36185;SDS011;22228;53.222;7.446;2023-02-15T15:14:15;38.43;;;26.97;;
36185;SDS011;22228;53.222;7.446;2023-02-15T15:16:57;38.80;;;27.20;;
36185;SDS011;22228;53.222;7.446;2023-02-15T15:22:27;35.67;;;26.73;;
36185;SDS011;22228;53.222;7.446;2023-02-15T15:24:49;39.70;;;28.63;;
36185;SDS011;22228;53.222;7.446;2023-02-15T15:30:18;38.17;;;27.20;;
36185;SDS011;22228;53.222;7.446;2023-02-15T15:36:32;42.40;;;28.80;;
36185;SDS011;22228;53.222;7.446;2023-02-15T15:39:17;40.13;;;27.80;;
36185;SDS011;22228;53.222;7.446;2023-02-15T15:41:57;38.40;;;27.73;;
36185;SDS011;22228;53.222;7.446;2023-02-15T15:44:47;40.40;;;28.13;;
36185;SDS011;22228;53.222;7.446;2023-02-15T15:47:38;38.53;;;28.40;;
36185;SDS011;22228;53.222;7.446;2023-02-15T15:50:14;39.83;;;27.70;;
36185;SDS011;22228;53.222;7.446;2023-02-15T15:52:36;38.97;;;29.00;;
36185;SDS011;22228;53.222;7.446;2023-02-15T15:55:04;40.93;;;30.07;;
36185;SDS011;22228;53.222;7.446;2023-02-15T15:57:37;37.43;;;28.50;;
36185;SDS011;22228;53.222;7.446;2023-02-15T15:59:58;36.53;;;27.57;;
36185;SDS011;22228;53.222;7.446;2023-02-15T16:02:19;40.17;;;29.67;;
36185;SDS011;22228;53.222;7.446;2023-02-15T16:04:41;40.80;;;30.57;;
36185;SDS011;22228;53.222;7.446;2023-02-15T16:07:13;44.33;;;29.47;;
36185;SDS011;22228;53.222;7.446;2023-02-15T16:09:44;41.90;;;29.70;;
36185;SDS011;22228;53.222;7.446;2023-02-15T16:12:14;41.57;;;30.03;;
36185;SDS011;22228;53.222;7.446;2023-02-15T16:14:37;39.83;;;30.60;;
36185;SDS011;22228;53.222;7.446;2023-02-15T16:16:59;38.60;;;29.93;;
36185;SDS011;22228;53.222;7.446;2023-02-15T16:19:22;44.93;;;31.50;;
36185;SDS011;22228;53.222;7.446;2023-02-15T16:21:47;45.90;;;34.07;;
36185;SDS011;22228;53.222;7.446;2023-02-15T16:24:13;52.87;;;36.40;;
36185;SDS011;22228;53.222;7.446;2023-02-15T16:26:48;44.43;;;32.23;;
36185;SDS011;22228;53.222;7.446;2023-02-15T16:29:25;47.67;;;33.07;;
36185;SDS011;22228;53.222;7.446;2023-02-15T16:31:56;42.23;;;30.67;;
36185;SDS011;22228;53.222;7.446;2023-02-15T16:34:18;39.03;;;30.67;;
36185;SDS011;22228;53.222;7.446;2023-02-15T16:36:39;47.03;;;31.87;;
36185;SDS011;22228;53.222;7.446;2023-02-15T16:39:08;39.37;;;29.90;;
36185;SDS011;22228;53.222;7.446;2023-02-15T16:41:36;41.27;;;29.47;;
36185;SDS011;22228;53.222;7.446;2023-02-15T16:43:58;42.17;;;30.50;;
36185;SDS011;22228;53.222;7.446;2023-02-15T16:46:24;43.27;;;32.17;;
36185;SDS011;22228;53.222;7.446;2023-02-15T16:48:46;40.90;;;30.37;;
36185;SDS011;22228;53.222;7.446;2023-02-15T16:51:10;41.73;;;31.10;;
36185;SDS011;22228;53.222;7.446;2023-02-15T16:53:40;49.50;;;33.80;;
36185;SDS011;22228;53.222;7.446;2023-02-15T16:56:06;54.57;;;36.67;;
36185;SDS011;22228;53.222;7.446;2023-02-15T16:58:29;45.47;;;33.20;;
36185;SDS011;22228;53.222;7.446;2023-02-15T17:00:56;43.37;;;31.07;;
36185;SDS011;22228;53.222;7.446;2023-02-15T17:03:22;42.43;;;31.17;;
36185;SDS011;22228;53.222;7.446;2023-02-15T17:05:44;41.87;;;31.67;;
36185;SDS011;22228;53.222;7.446;2023-02-15T17:08:14;45.20;;;31.27;;
36185;SDS011;22228;53.222;7.446;2023-02-15T17:10:37;44.30;;;32.37;;
36185;SDS011;22228;53.222;7.446;2023-02-15T17:13:02;42.60;;;31.57;;
36185;SDS011;22228;53.222;7.446;2023-02-15T17:15:24;44.20;;;32.53;;
36185;SDS011;22228;53.222;7.446;2023-02-15T17:17:46;43.63;;;31.67;;